sensor_id;sensor_type;location;lat;lon;timestamp;P1;durP1;ratioP1;P2;durP2;ratioP2
22268;SDS011;11303;50.772;19.670;2023-06-19T00:00:24;24.45;;;17.08;;
22268;SDS011;11303;50.772;19.670;2023-06-19T00:02:27;23.52;;;17.55;;
22268;SDS011;11303;50.772;19.670;2023-06-19T00:04:28;23.10;;;18.25;;
22268;SDS011;11303;50.772;19.670;2023-06-19T00:06:30;24.08;;;19.20;;
22268;SDS011;11303;50.772;19.670;2023-06-19T00:08:31;24.88;;;19.17;;
22268;SDS011;11303;50.772;19.670;2023-06-19T00:10:33;21.88;;;18.42;;
22268;SDS011;11303;50.772;19.670;2023-06-19T00:12:35;24.90;;;18.73;;
22268;SDS011;11303;50.772;19.670;2023-06-19T00:14:37;22.63;;;18.48;;
22268;SDS011;11303;50.772;19.670;2023-06-19T00:16:39;29.77;;;18.45;;
22268;SDS011;11303;50.772;19.670;2023-06-19T00:18:41;21.67;;;17.95;;
22268;SDS011;11303;50.772;19.670;2023-06-19T00:20:43;27.35;;;18.80;;
22268;SDS011;11303;50.772;19.670;2023-06-19T00:22:47;21.92;;;18.08;;
22268;SDS011;11303;50.772;19.670;2023-06-19T00:24:52;23.92;;;18.65;;
22268;SDS011;11303;50.772;19.670;2023-06-19T00:26:54;25.85;;;17.58;;
22268;SDS011;11303;50.772;19.670;2023-06-19T00:28:56;18.15;;;14.35;;
22268;SDS011;11303;50.772;19.670;2023-06-19T00:30:58;17.48;;;15.40;;
22268;SDS011;11303;50.772;19.670;2023-06-19T00:32:59;20.45;;;15.50;;
22268;SDS011;11303;50.772;19.670;2023-06-19T00:35:04;20.67;;;15.38;;
22268;SDS011;11303;50.772;19.670;2023-06-19T00:37:06;19.55;;;15.95;;
22268;SDS011;11303;50.772;19.670;2023-06-19T00:39:07;21.50;;;16.83;;
22268;SDS011;11303;50.772;19.670;2023-06-19T00:41:09;22.70;;;17.67;;
22268;SDS011;11303;50.772;19.670;2023-06-19T00:43:11;23.08;;;18.30;;
22268;SDS011;11303;50.772;19.670;2023-06-19T00:45:13;22.80;;;18.13;;
22268;SDS011;11303;50.772;19.670;2023-06-19T00:47:14;24.70;;;19.33;;
22268;SDS011;11303;50.772;19.670;2023-06-19T00:49:16;25.80;;;19.02;;
22268;SDS011;11303;50.772;19.670;2023-06-19T00:51:18;21.70;;;17.60;;
22268;SDS011;11303;50.772;19.670;2023-06-19T00:53:19;20.67;;;17.33;;
22268;SDS011;11303;50.772;19.670;2023-06-19T00:55:21;19.42;;;16.55;;
22268;SDS011;11303;50.772;19.670;2023-06-19T00:57:23;18.08;;;16.10;;
22268;SDS011;11303;50.772;19.670;2023-06-19T00:59:25;19.83;;;15.75;;
22268;SDS011;11303;50.772;19.670;2023-06-19T01:01:27;19.10;;;16.10;;
22268;SDS011;11303;50.772;19.670;2023-06-19T01:03:29;19.35;;;16.30;;
22268;SDS011;11303;50.772;19.670;2023-06-19T01:05:31;20.67;;;16.50;;
22268;SDS011;11303;50.772;19.670;2023-06-19T01:07:42;27.65;;;16.13;;
22268;SDS011;11303;50.772;19.670;2023-06-19T01:10:02;20.25;;;16.70;;
22268;SDS011;11303;50.772;19.670;2023-06-19T01:12:08;25.73;;;17.52;;
22268;SDS011;11303;50.772;19.670;2023-06-19T01:14:21;23.37;;;17.10;;
22268;SDS011;11303;50.772;19.670;2023-06-19T01:16:27;17.83;;;14.82;;
22268;SDS011;11303;50.772;19.670;2023-06-19T01:18:30;21.58;;;16.60;;
22268;SDS011;11303;50.772;19.670;2023-06-19T01:20:33;20.80;;;15.55;;
22268;SDS011;11303;50.772;19.670;2023-06-19T01:22:35;20.88;;;15.55;;
22268;SDS011;11303;50.772;19.670;2023-06-19T01:24:36;28.65;;;19.38;;
22268;SDS011;11303;50.772;19.670;2023-06-19T01:26:38;24.38;;;17.33;;
22268;SDS011;11303;50.772;19.670;2023-06-19T01:28:41;21.98;;;17.58;;
22268;SDS011;11303;50.772;19.670;2023-06-19T01:30:43;22.85;;;17.58;;
22268;SDS011;11303;50.772;19.670;2023-06-19T01:33:04;23.52;;;18.13;;
22268;SDS011;11303;50.772;19.670;2023-06-19T01:35:15;27.08;;;17.95;;
22268;SDS011;11303;50.772;19.670;2023-06-19T01:37:20;22.05;;;17.52;;
22268;SDS011;11303;50.772;19.670;2023-06-19T01:39:23;22.92;;;17.20;;
22268;SDS011;11303;50.772;19.670;2023-06-19T01:41:26;22.45;;;17.05;;
22268;SDS011;11303;50.772;19.670;2023-06-19T01:43:29;24.38;;;15.63;;
22268;SDS011;11303;50.772;19.670;2023-06-19T01:45:32;20.65;;;16.08;;
22268;SDS011;11303;50.772;19.670;2023-06-19T01:47:34;22.85;;;16.83;;
22268;SDS011;11303;50.772;19.670;2023-06-19T01:49:37;20.23;;;17.05;;
22268;SDS011;11303;50.772;19.670;2023-06-19T01:51:39;19.25;;;15.57;;
22268;SDS011;11303;50.772;19.670;2023-06-19T01:53:40;22.20;;;17.33;;
22268;SDS011;11303;50.772;19.670;2023-06-19T01:55:42;23.85;;;16.85;;
22268;SDS011;11303;50.772;19.670;2023-06-19T01:57:44;20.60;;;15.77;;
22268;SDS011;11303;50.772;19.670;2023-06-19T01:59:47;19.63;;;16.25;;
22268;SDS011;11303;50.772;19.670;2023-06-19T02:01:48;20.60;;;15.85;;
22268;SDS011;11303;50.772;19.670;2023-06-19T02:03:50;22.85;;;16.92;;
22268;SDS011;11303;50.772;19.670;2023-06-19T02:05:52;20.80;;;17.08;;
22268;SDS011;11303;50.772;19.670;2023-06-19T02:07:53;20.77;;;17.75;;
22268;SDS011;11303;50.772;19.670;2023-06-19T02:09:55;19.88;;;16.85;;
22268;SDS011;11303;50.772;19.670;2023-06-19T02:11:57;20.95;;;16.77;;
22268;SDS011;11303;50.772;19.670;2023-06-19T02:13:59;21.38;;;17.08;;
22268;SDS011;11303;50.772;19.670;2023-06-19T02:16:01;21.35;;;16.63;;
22268;SDS011;11303;50.772;19.670;2023-06-19T02:18:02;18.88;;;15.70;;
22268;SDS011;11303;50.772;19.670;2023-06-19T02:20:04;19.33;;;15.77;;
22268;SDS011;11303;50.772;19.670;2023-06-19T02:22:10;23.25;;;16.73;;
22268;SDS011;11303;50.772;19.670;2023-06-19T02:24:11;24.50;;;17.08;;
22268;SDS011;11303;50.772;19.670;2023-06-19T02:26:13;20.13;;;15.93;;
22268;SDS011;11303;50.772;19.670;2023-06-19T02:28:14;23.17;;;16.77;;
22268;SDS011;11303;50.772;19.670;2023-06-19T02:30:17;22.70;;;17.20;;
22268;SDS011;11303;50.772;19.670;2023-06-19T02:32:18;24.30;;;16.48;;
22268;SDS011;11303;50.772;19.670;2023-06-19T02:34:20;19.90;;;16.33;;
22268;SDS011;11303;50.772;19.670;2023-06-19T02:36:22;19.52;;;16.17;;
22268;SDS011;11303;50.772;19.670;2023-06-19T02:38:23;23.58;;;16.77;;
22268;SDS011;11303;50.772;19.670;2023-06-19T02:40:25;19.27;;;15.68;;
22268;SDS011;11303;50.772;19.670;2023-06-19T02:42:27;17.70;;;13.88;;
22268;SDS011;11303;50.772;19.670;2023-06-19T02:44:28;20.60;;;15.35;;
22268;SDS011;11303;50.772;19.670;2023-06-19T02:46:30;18.48;;;14.90;;
22268;SDS011;11303;50.772;19.670;2023-06-19T02:48:31;17.20;;;14.25;;
22268;SDS011;11303;50.772;19.670;2023-06-19T02:50:33;21.48;;;15.70;;
22268;SDS011;11303;50.772;19.670;2023-06-19T02:52:35;22.00;;;15.60;;
22268;SDS011;11303;50.772;19.670;2023-06-19T02:54:37;18.00;;;14.43;;
22268;SDS011;11303;50.772;19.670;2023-06-19T02:56:38;22.52;;;15.70;;
22268;SDS011;11303;50.772;19.670;2023-06-19T02:58:40;20.30;;;14.85;;
22268;SDS011;11303;50.772;19.670;2023-06-19T03:00:43;21.92;;;16.63;;
22268;SDS011;11303;50.772;19.670;2023-06-19T03:02:44;27.35;;;18.75;;
22268;SDS011;11303;50.772;19.670;2023-06-19T03:04:46;25.67;;;18.13;;
22268;SDS011;11303;50.772;19.670;2023-06-19T03:06:48;24.50;;;18.75;;
22268;SDS011;11303;50.772;19.670;2023-06-19T03:08:49;23.95;;;17.45;;
22268;SDS011;11303;50.772;19.670;2023-06-19T03:10:51;23.08;;;19.27;;
22268;SDS011;11303;50.772;19.670;2023-06-19T03:12:53;26.20;;;17.52;;
22268;SDS011;11303;50.772;19.670;2023-06-19T03:14:54;24.40;;;19.08;;
22268;SDS011;11303;50.772;19.670;2023-06-19T03:16:56;29.98;;;19.98;;
22268;SDS011;11303;50.772;19.670;2023-06-19T03:18:57;20.15;;;15.68;;
22268;SDS011;11303;50.772;19.670;2023-06-19T03:20:59;25.98;;;17.13;;
22268;SDS011;11303;50.772;19.670;2023-06-19T03:23:00;22.63;;;16.92;;
22268;SDS011;11303;50.772;19.670;2023-06-19T03:25:02;24.45;;;15.60;;
22268;SDS011;11303;50.772;19.670;2023-06-19T03:27:04;17.75;;;15.27;;
22268;SDS011;11303;50.772;19.670;2023-06-19T03:29:06;16.00;;;13.40;;
22268;SDS011;11303;50.772;19.670;2023-06-19T03:31:07;17.05;;;14.38;;
22268;SDS011;11303;50.772;19.670;2023-06-19T03:33:09;16.23;;;13.05;;
22268;SDS011;11303;50.772;19.670;2023-06-19T03:35:11;14.48;;;12.73;;
22268;SDS011;11303;50.772;19.670;2023-06-19T03:37:12;21.90;;;13.23;;
22268;SDS011;11303;50.772;19.670;2023-06-19T03:39:14;16.08;;;12.50;;
22268;SDS011;11303;50.772;19.670;2023-06-19T03:41:16;14.50;;;12.02;;
22268;SDS011;11303;50.772;19.670;2023-06-19T03:43:17;16.60;;;12.25;;
22268;SDS011;11303;50.772;19.670;2023-06-19T03:45:19;16.52;;;12.65;;
22268;SDS011;11303;50.772;19.670;2023-06-19T03:47:21;16.35;;;12.65;;
22268;SDS011;11303;50.772;19.670;2023-06-19T03:49:22;15.63;;;12.55;;
22268;SDS011;11303;50.772;19.670;2023-06-19T03:51:24;16.30;;;12.07;;
22268;SDS011;11303;50.772;19.670;2023-06-19T03:53:26;16.00;;;12.40;;
22268;SDS011;11303;50.772;19.670;2023-06-19T03:55:27;16.35;;;12.45;;
22268;SDS011;11303;50.772;19.670;2023-06-19T03:57:29;16.17;;;12.45;;
22268;SDS011;11303;50.772;19.670;2023-06-19T03:59:30;13.60;;;11.98;;
22268;SDS011;11303;50.772;19.670;2023-06-19T04:01:32;16.95;;;11.63;;
22268;SDS011;11303;50.772;19.670;2023-06-19T04:03:34;15.13;;;11.63;;
22268;SDS011;11303;50.772;19.670;2023-06-19T04:05:35;12.88;;;11.00;;
22268;SDS011;11303;50.772;19.670;2023-06-19T04:07:37;14.05;;;11.90;;
22268;SDS011;11303;50.772;19.670;2023-06-19T04:09:39;20.92;;;12.07;;
22268;SDS011;11303;50.772;19.670;2023-06-19T04:11:41;16.17;;;12.85;;
22268;SDS011;11303;50.772;19.670;2023-06-19T04:13:42;19.77;;;13.60;;
22268;SDS011;11303;50.772;19.670;2023-06-19T04:15:44;17.48;;;14.10;;
22268;SDS011;11303;50.772;19.670;2023-06-19T04:17:49;15.88;;;13.43;;
22268;SDS011;11303;50.772;19.670;2023-06-19T04:19:51;15.85;;;12.73;;
22268;SDS011;11303;50.772;19.670;2023-06-19T04:21:52;15.02;;;12.68;;
22268;SDS011;11303;50.772;19.670;2023-06-19T04:23:55;14.73;;;13.10;;
22268;SDS011;11303;50.772;19.670;2023-06-19T04:25:57;17.73;;;13.27;;
22268;SDS011;11303;50.772;19.670;2023-06-19T04:27:59;19.95;;;12.27;;
22268;SDS011;11303;50.772;19.670;2023-06-19T04:30:01;15.20;;;11.63;;
22268;SDS011;11303;50.772;19.670;2023-06-19T04:32:05;14.77;;;10.90;;
22268;SDS011;11303;50.772;19.670;2023-06-19T04:34:13;13.82;;;11.38;;
22268;SDS011;11303;50.772;19.670;2023-06-19T04:36:16;17.20;;;10.93;;
22268;SDS011;11303;50.772;19.670;2023-06-19T04:38:18;14.25;;;10.90;;
22268;SDS011;11303;50.772;19.670;2023-06-19T04:40:20;14.15;;;11.60;;
22268;SDS011;11303;50.772;19.670;2023-06-19T04:42:22;16.00;;;12.00;;
22268;SDS011;11303;50.772;19.670;2023-06-19T04:44:23;12.43;;;10.80;;
22268;SDS011;11303;50.772;19.670;2023-06-19T04:46:25;14.85;;;11.43;;
22268;SDS011;11303;50.772;19.670;2023-06-19T04:48:26;13.80;;;11.95;;
22268;SDS011;11303;50.772;19.670;2023-06-19T04:50:28;13.88;;;11.52;;
22268;SDS011;11303;50.772;19.670;2023-06-19T04:52:30;14.25;;;11.18;;
22268;SDS011;11303;50.772;19.670;2023-06-19T04:54:34;13.68;;;10.23;;
22268;SDS011;11303;50.772;19.670;2023-06-19T04:56:35;13.63;;;9.80;;
22268;SDS011;11303;50.772;19.670;2023-06-19T04:58:37;10.90;;;9.05;;
22268;SDS011;11303;50.772;19.670;2023-06-19T05:00:47;10.05;;;8.68;;
22268;SDS011;11303;50.772;19.670;2023-06-19T05:02:52;10.45;;;9.10;;
22268;SDS011;11303;50.772;19.670;2023-06-19T05:04:54;10.45;;;9.32;;
22268;SDS011;11303;50.772;19.670;2023-06-19T05:06:55;13.13;;;10.32;;
22268;SDS011;11303;50.772;19.670;2023-06-19T05:08:57;11.43;;;9.93;;
22268;SDS011;11303;50.772;19.670;2023-06-19T05:10:58;11.65;;;10.10;;
22268;SDS011;11303;50.772;19.670;2023-06-19T05:13:00;15.48;;;10.27;;
22268;SDS011;11303;50.772;19.670;2023-06-19T05:15:03;17.13;;;9.10;;
22268;SDS011;11303;50.772;19.670;2023-06-19T05:17:05;12.57;;;9.80;;
22268;SDS011;11303;50.772;19.670;2023-06-19T05:19:07;13.65;;;9.02;;
22268;SDS011;11303;50.772;19.670;2023-06-19T05:21:09;14.38;;;10.55;;
22268;SDS011;11303;50.772;19.670;2023-06-19T05:23:10;13.38;;;11.02;;
22268;SDS011;11303;50.772;19.670;2023-06-19T05:25:12;13.95;;;10.93;;
22268;SDS011;11303;50.772;19.670;2023-06-19T05:27:13;16.00;;;10.82;;
22268;SDS011;11303;50.772;19.670;2023-06-19T05:29:15;16.13;;;10.52;;
22268;SDS011;11303;50.772;19.670;2023-06-19T05:31:17;21.70;;;11.95;;
22268;SDS011;11303;50.772;19.670;2023-06-19T05:33:19;11.93;;;10.23;;
22268;SDS011;11303;50.772;19.670;2023-06-19T05:35:21;11.88;;;9.45;;
22268;SDS011;11303;50.772;19.670;2023-06-19T05:37:23;9.52;;;8.10;;
22268;SDS011;11303;50.772;19.670;2023-06-19T05:39:25;14.05;;;9.02;;
22268;SDS011;11303;50.772;19.670;2023-06-19T05:41:26;10.90;;;9.02;;
22268;SDS011;11303;50.772;19.670;2023-06-19T05:43:28;12.95;;;8.65;;
22268;SDS011;11303;50.772;19.670;2023-06-19T05:45:30;11.93;;;9.07;;
22268;SDS011;11303;50.772;19.670;2023-06-19T05:47:32;12.55;;;8.63;;
22268;SDS011;11303;50.772;19.670;2023-06-19T05:49:33;15.43;;;9.05;;
22268;SDS011;11303;50.772;19.670;2023-06-19T05:51:35;13.02;;;9.45;;
22268;SDS011;11303;50.772;19.670;2023-06-19T05:53:36;13.25;;;9.77;;
22268;SDS011;11303;50.772;19.670;2023-06-19T05:55:40;12.07;;;9.90;;
22268;SDS011;11303;50.772;19.670;2023-06-19T05:57:42;13.80;;;10.45;;
22268;SDS011;11303;50.772;19.670;2023-06-19T05:59:43;13.10;;;10.07;;
22268;SDS011;11303;50.772;19.670;2023-06-19T06:01:45;15.13;;;10.52;;
22268;SDS011;11303;50.772;19.670;2023-06-19T06:03:47;13.02;;;8.95;;
22268;SDS011;11303;50.772;19.670;2023-06-19T06:05:48;11.10;;;7.82;;
22268;SDS011;11303;50.772;19.670;2023-06-19T06:07:51;10.43;;;8.05;;
22268;SDS011;11303;50.772;19.670;2023-06-19T06:09:52;17.95;;;13.90;;
22268;SDS011;11303;50.772;19.670;2023-06-19T06:11:54;19.48;;;13.48;;
22268;SDS011;11303;50.772;19.670;2023-06-19T06:13:56;18.83;;;12.18;;
22268;SDS011;11303;50.772;19.670;2023-06-19T06:15:57;13.90;;;9.75;;
22268;SDS011;11303;50.772;19.670;2023-06-19T06:17:59;20.33;;;8.85;;
22268;SDS011;11303;50.772;19.670;2023-06-19T06:20:01;9.95;;;8.52;;
22268;SDS011;11303;50.772;19.670;2023-06-19T06:22:07;10.77;;;8.45;;
22268;SDS011;11303;50.772;19.670;2023-06-19T06:24:09;9.70;;;7.75;;
22268;SDS011;11303;50.772;19.670;2023-06-19T06:26:11;10.20;;;8.52;;
22268;SDS011;11303;50.772;19.670;2023-06-19T06:28:12;7.55;;;6.78;;
22268;SDS011;11303;50.772;19.670;2023-06-19T06:30:14;7.60;;;6.80;;
22268;SDS011;11303;50.772;19.670;2023-06-19T06:32:18;14.63;;;6.97;;
22268;SDS011;11303;50.772;19.670;2023-06-19T06:34:20;9.85;;;6.60;;
22268;SDS011;11303;50.772;19.670;2023-06-19T06:36:21;8.13;;;7.13;;
22268;SDS011;11303;50.772;19.670;2023-06-19T06:38:37;7.90;;;6.90;;
22268;SDS011;11303;50.772;19.670;2023-06-19T06:40:38;7.75;;;6.15;;
22268;SDS011;11303;50.772;19.670;2023-06-19T06:42:40;7.03;;;6.13;;
22268;SDS011;11303;50.772;19.670;2023-06-19T06:44:42;7.65;;;6.50;;
22268;SDS011;11303;50.772;19.670;2023-06-19T06:46:43;9.10;;;6.47;;
22268;SDS011;11303;50.772;19.670;2023-06-19T06:48:45;9.32;;;6.15;;
22268;SDS011;11303;50.772;19.670;2023-06-19T06:50:46;9.43;;;6.82;;
22268;SDS011;11303;50.772;19.670;2023-06-19T06:52:48;6.90;;;6.18;;
22268;SDS011;11303;50.772;19.670;2023-06-19T06:54:49;6.95;;;6.25;;
22268;SDS011;11303;50.772;19.670;2023-06-19T06:56:51;7.00;;;6.28;;
22268;SDS011;11303;50.772;19.670;2023-06-19T06:58:57;7.15;;;6.25;;
22268;SDS011;11303;50.772;19.670;2023-06-19T07:00:59;7.68;;;6.00;;
22268;SDS011;11303;50.772;19.670;2023-06-19T07:03:00;7.18;;;6.07;;
22268;SDS011;11303;50.772;19.670;2023-06-19T07:05:02;8.10;;;5.75;;
22268;SDS011;11303;50.772;19.670;2023-06-19T07:07:04;8.63;;;6.68;;
22268;SDS011;11303;50.772;19.670;2023-06-19T07:09:07;6.60;;;5.90;;
22268;SDS011;11303;50.772;19.670;2023-06-19T07:11:09;8.40;;;5.82;;
22268;SDS011;11303;50.772;19.670;2023-06-19T07:13:10;10.52;;;6.43;;
22268;SDS011;11303;50.772;19.670;2023-06-19T07:15:12;9.90;;;6.53;;
22268;SDS011;11303;50.772;19.670;2023-06-19T07:17:14;9.95;;;6.00;;
22268;SDS011;11303;50.772;19.670;2023-06-19T07:19:15;7.10;;;6.13;;
22268;SDS011;11303;50.772;19.670;2023-06-19T07:21:17;6.82;;;6.13;;
22268;SDS011;11303;50.772;19.670;2023-06-19T07:23:18;8.60;;;6.10;;
22268;SDS011;11303;50.772;19.670;2023-06-19T07:25:20;8.30;;;6.47;;
22268;SDS011;11303;50.772;19.670;2023-06-19T07:27:26;7.80;;;6.30;;
22268;SDS011;11303;50.772;19.670;2023-06-19T07:29:29;9.95;;;6.97;;
22268;SDS011;11303;50.772;19.670;2023-06-19T07:31:30;10.30;;;8.43;;
22268;SDS011;11303;50.772;19.670;2023-06-19T07:33:32;9.70;;;8.25;;
22268;SDS011;11303;50.772;19.670;2023-06-19T07:35:33;6.50;;;5.70;;
22268;SDS011;11303;50.772;19.670;2023-06-19T07:37:35;8.02;;;7.20;;
22268;SDS011;11303;50.772;19.670;2023-06-19T07:39:36;9.77;;;6.30;;
22268;SDS011;11303;50.772;19.670;2023-06-19T07:41:38;5.60;;;5.10;;
22268;SDS011;11303;50.772;19.670;2023-06-19T07:43:40;6.45;;;5.50;;
22268;SDS011;11303;50.772;19.670;2023-06-19T07:45:41;7.72;;;5.78;;
22268;SDS011;11303;50.772;19.670;2023-06-19T07:47:43;9.48;;;8.18;;
22268;SDS011;11303;50.772;19.670;2023-06-19T07:49:45;9.98;;;8.13;;
22268;SDS011;11303;50.772;19.670;2023-06-19T07:51:46;9.55;;;7.32;;
22268;SDS011;11303;50.772;19.670;2023-06-19T07:53:48;7.75;;;6.93;;
22268;SDS011;11303;50.772;19.670;2023-06-19T07:55:50;8.18;;;7.35;;
22268;SDS011;11303;50.772;19.670;2023-06-19T07:57:51;9.10;;;7.43;;
22268;SDS011;11303;50.772;19.670;2023-06-19T07:59:54;13.32;;;9.15;;
22268;SDS011;11303;50.772;19.670;2023-06-19T08:01:56;14.43;;;9.95;;
22268;SDS011;11303;50.772;19.670;2023-06-19T08:03:57;10.68;;;8.35;;
22268;SDS011;11303;50.772;19.670;2023-06-19T08:05:59;8.57;;;7.68;;
22268;SDS011;11303;50.772;19.670;2023-06-19T08:08:00;8.75;;;7.85;;
22268;SDS011;11303;50.772;19.670;2023-06-19T08:10:03;9.18;;;7.32;;
22268;SDS011;11303;50.772;19.670;2023-06-19T08:12:14;9.13;;;6.88;;
22268;SDS011;11303;50.772;19.670;2023-06-19T08:14:16;8.02;;;7.22;;
22268;SDS011;11303;50.772;19.670;2023-06-19T08:16:17;7.32;;;6.47;;
22268;SDS011;11303;50.772;19.670;2023-06-19T08:18:19;7.80;;;7.00;;
22268;SDS011;11303;50.772;19.670;2023-06-19T08:20:21;8.60;;;7.80;;
22268;SDS011;11303;50.772;19.670;2023-06-19T08:22:23;8.38;;;7.45;;
22268;SDS011;11303;50.772;19.670;2023-06-19T08:24:26;9.07;;;8.00;;
22268;SDS011;11303;50.772;19.670;2023-06-19T08:26:28;9.32;;;6.93;;
22268;SDS011;11303;50.772;19.670;2023-06-19T08:28:31;6.35;;;5.75;;
22268;SDS011;11303;50.772;19.670;2023-06-19T08:30:33;7.70;;;5.85;;
22268;SDS011;11303;50.772;19.670;2023-06-19T08:32:34;7.63;;;6.03;;
22268;SDS011;11303;50.772;19.670;2023-06-19T08:34:36;8.32;;;6.32;;
22268;SDS011;11303;50.772;19.670;2023-06-19T08:36:39;7.03;;;6.32;;
22268;SDS011;11303;50.772;19.670;2023-06-19T08:38:41;6.75;;;6.15;;
22268;SDS011;11303;50.772;19.670;2023-06-19T08:40:42;6.57;;;5.88;;
22268;SDS011;11303;50.772;19.670;2023-06-19T08:42:45;6.85;;;6.15;;
22268;SDS011;11303;50.772;19.670;2023-06-19T08:44:46;7.72;;;5.03;;
22268;SDS011;11303;50.772;19.670;2023-06-19T08:46:48;5.13;;;4.63;;
22268;SDS011;11303;50.772;19.670;2023-06-19T08:48:50;8.23;;;4.70;;
22268;SDS011;11303;50.772;19.670;2023-06-19T08:50:51;4.78;;;4.38;;
22268;SDS011;11303;50.772;19.670;2023-06-19T08:52:54;4.72;;;4.32;;
22268;SDS011;11303;50.772;19.670;2023-06-19T08:54:56;5.68;;;4.53;;
22268;SDS011;11303;50.772;19.670;2023-06-19T08:57:01;8.90;;;4.30;;
22268;SDS011;11303;50.772;19.670;2023-06-19T08:59:10;7.45;;;4.63;;
22268;SDS011;11303;50.772;19.670;2023-06-19T09:01:22;6.15;;;4.32;;
22268;SDS011;11303;50.772;19.670;2023-06-19T09:03:28;4.88;;;4.38;;
22268;SDS011;11303;50.772;19.670;2023-06-19T09:05:30;5.82;;;3.92;;
22268;SDS011;11303;50.772;19.670;2023-06-19T09:07:31;5.82;;;4.45;;
22268;SDS011;11303;50.772;19.670;2023-06-19T09:09:33;5.47;;;4.95;;
22268;SDS011;11303;50.772;19.670;2023-06-19T09:11:35;5.82;;;4.32;;
22268;SDS011;11303;50.772;19.670;2023-06-19T09:13:36;7.43;;;4.63;;
22268;SDS011;11303;50.772;19.670;2023-06-19T09:15:38;5.43;;;4.40;;
22268;SDS011;11303;50.772;19.670;2023-06-19T09:17:40;6.35;;;4.88;;
22268;SDS011;11303;50.772;19.670;2023-06-19T09:19:51;7.50;;;5.32;;
22268;SDS011;11303;50.772;19.670;2023-06-19T09:21:58;11.52;;;4.85;;
22268;SDS011;11303;50.772;19.670;2023-06-19T09:24:05;4.78;;;4.22;;
22268;SDS011;11303;50.772;19.670;2023-06-19T09:26:07;5.43;;;3.97;;
22268;SDS011;11303;50.772;19.670;2023-06-19T09:28:16;7.68;;;5.03;;
22268;SDS011;11303;50.772;19.670;2023-06-19T09:30:21;5.00;;;4.35;;
22268;SDS011;11303;50.772;19.670;2023-06-19T09:32:24;6.68;;;4.40;;
22268;SDS011;11303;50.772;19.670;2023-06-19T09:34:27;5.95;;;4.40;;
22268;SDS011;11303;50.772;19.670;2023-06-19T09:36:29;4.90;;;4.38;;
22268;SDS011;11303;50.772;19.670;2023-06-19T09:38:34;4.40;;;4.00;;
22268;SDS011;11303;50.772;19.670;2023-06-19T09:40:39;4.53;;;4.13;;
22268;SDS011;11303;50.772;19.670;2023-06-19T09:42:42;5.50;;;4.05;;
22268;SDS011;11303;50.772;19.670;2023-06-19T09:44:45;4.30;;;3.90;;
22268;SDS011;11303;50.772;19.670;2023-06-19T09:46:50;5.75;;;3.95;;
22268;SDS011;11303;50.772;19.670;2023-06-19T09:48:53;4.65;;;4.25;;
22268;SDS011;11303;50.772;19.670;2023-06-19T09:51:01;4.32;;;3.60;;
22268;SDS011;11303;50.772;19.670;2023-06-19T09:53:09;4.47;;;3.80;;
22268;SDS011;11303;50.772;19.670;2023-06-19T09:55:12;4.22;;;3.90;;
22268;SDS011;11303;50.772;19.670;2023-06-19T09:57:14;5.05;;;3.97;;
22268;SDS011;11303;50.772;19.670;2023-06-19T09:59:16;5.05;;;4.55;;
22268;SDS011;11303;50.772;19.670;2023-06-19T10:01:19;4.95;;;4.35;;
22268;SDS011;11303;50.772;19.670;2023-06-19T10:03:29;4.88;;;4.32;;
22268;SDS011;11303;50.772;19.670;2023-06-19T10:05:32;4.70;;;4.30;;
22268;SDS011;11303;50.772;19.670;2023-06-19T10:07:34;5.07;;;4.35;;
22268;SDS011;11303;50.772;19.670;2023-06-19T10:09:37;7.93;;;4.30;;
22268;SDS011;11303;50.772;19.670;2023-06-19T10:11:45;4.40;;;4.00;;
22268;SDS011;11303;50.772;19.670;2023-06-19T10:13:48;8.32;;;4.53;;
22268;SDS011;11303;50.772;19.670;2023-06-19T10:15:50;8.35;;;6.13;;
22268;SDS011;11303;50.772;19.670;2023-06-19T10:20:04;4.70;;;4.28;;
22268;SDS011;11303;50.772;19.670;2023-06-19T10:22:18;4.63;;;4.00;;
22268;SDS011;11303;50.772;19.670;2023-06-19T10:24:23;4.82;;;4.18;;
22268;SDS011;11303;50.772;19.670;2023-06-19T10:26:35;5.40;;;4.30;;
22268;SDS011;11303;50.772;19.670;2023-06-19T10:28:36;5.05;;;4.38;;
22268;SDS011;11303;50.772;19.670;2023-06-19T10:30:38;5.57;;;5.07;;
22268;SDS011;11303;50.772;19.670;2023-06-19T10:32:40;6.90;;;6.20;;
22268;SDS011;11303;50.772;19.670;2023-06-19T10:34:44;5.72;;;5.13;;
22268;SDS011;11303;50.772;19.670;2023-06-19T10:36:48;5.00;;;4.50;;
22268;SDS011;11303;50.772;19.670;2023-06-19T10:38:50;5.43;;;4.93;;
22268;SDS011;11303;50.772;19.670;2023-06-19T10:40:52;6.20;;;4.22;;
22268;SDS011;11303;50.772;19.670;2023-06-19T10:42:53;6.20;;;4.88;;
22268;SDS011;11303;50.772;19.670;2023-06-19T10:45:05;5.50;;;5.00;;
22268;SDS011;11303;50.772;19.670;2023-06-19T10:47:08;5.30;;;4.63;;
22268;SDS011;11303;50.772;19.670;2023-06-19T10:49:10;9.20;;;4.57;;
22268;SDS011;11303;50.772;19.670;2023-06-19T10:51:15;7.60;;;5.00;;
22268;SDS011;11303;50.772;19.670;2023-06-19T10:53:26;5.00;;;4.50;;
22268;SDS011;11303;50.772;19.670;2023-06-19T10:55:28;5.32;;;4.68;;
22268;SDS011;11303;50.772;19.670;2023-06-19T10:57:30;5.32;;;4.68;;
22268;SDS011;11303;50.772;19.670;2023-06-19T10:59:33;5.35;;;4.07;;
22268;SDS011;11303;50.772;19.670;2023-06-19T11:01:36;5.40;;;4.90;;
22268;SDS011;11303;50.772;19.670;2023-06-19T11:03:45;7.00;;;4.35;;
22268;SDS011;11303;50.772;19.670;2023-06-19T11:05:47;4.75;;;4.35;;
22268;SDS011;11303;50.772;19.670;2023-06-19T11:07:53;4.47;;;4.07;;
22268;SDS011;11303;50.772;19.670;2023-06-19T11:09:56;3.80;;;3.50;;
22268;SDS011;11303;50.772;19.670;2023-06-19T11:11:58;3.50;;;3.20;;
22268;SDS011;11303;50.772;19.670;2023-06-19T11:14:00;3.80;;;3.40;;
22268;SDS011;11303;50.772;19.670;2023-06-19T11:16:02;4.20;;;3.80;;
22268;SDS011;11303;50.772;19.670;2023-06-19T11:18:04;5.75;;;3.88;;
22268;SDS011;11303;50.772;19.670;2023-06-19T11:20:10;4.90;;;3.80;;
22268;SDS011;11303;50.772;19.670;2023-06-19T11:22:12;5.22;;;4.07;;
22268;SDS011;11303;50.772;19.670;2023-06-19T11:24:14;4.53;;;4.03;;
22268;SDS011;11303;50.772;19.670;2023-06-19T11:26:16;4.85;;;3.70;;
22268;SDS011;11303;50.772;19.670;2023-06-19T11:28:18;4.47;;;3.70;;
22268;SDS011;11303;50.772;19.670;2023-06-19T11:30:30;4.05;;;3.65;;
22268;SDS011;11303;50.772;19.670;2023-06-19T11:32:37;3.97;;;3.58;;
22268;SDS011;11303;50.772;19.670;2023-06-19T11:34:42;4.03;;;3.30;;
22268;SDS011;11303;50.772;19.670;2023-06-19T11:36:46;3.60;;;3.30;;
22268;SDS011;11303;50.772;19.670;2023-06-19T11:38:48;3.75;;;3.40;;
22268;SDS011;11303;50.772;19.670;2023-06-19T11:40:50;4.10;;;3.70;;
22268;SDS011;11303;50.772;19.670;2023-06-19T11:42:52;4.82;;;3.95;;
22268;SDS011;11303;50.772;19.670;2023-06-19T11:44:55;4.72;;;3.50;;
22268;SDS011;11303;50.772;19.670;2023-06-19T11:46:57;5.25;;;3.42;;
22268;SDS011;11303;50.772;19.670;2023-06-19T11:51:15;5.50;;;3.50;;
22268;SDS011;11303;50.772;19.670;2023-06-19T11:53:17;5.88;;;3.90;;
22268;SDS011;11303;50.772;19.670;2023-06-19T11:55:19;3.85;;;3.50;;
22268;SDS011;11303;50.772;19.670;2023-06-19T11:57:20;5.38;;;3.63;;
22268;SDS011;11303;50.772;19.670;2023-06-19T11:59:22;4.75;;;3.33;;
22268;SDS011;11303;50.772;19.670;2023-06-19T12:01:23;5.00;;;3.65;;